createdAt,value
2024-04-03T00:00:30.969Z,5.37
2024-04-03T00:01:31.015Z,5.32
2024-04-03T00:02:31.107Z,5.37
2024-04-03T00:03:31.197Z,5.42
2024-04-03T00:04:31.286Z,5.32
2024-04-03T00:05:31.383Z,5.32
2024-04-03T00:06:31.501Z,5.37
2024-04-03T00:07:31.568Z,5.37
2024-04-03T00:08:31.610Z,5.37
2024-04-03T00:09:31.707Z,5.37
2024-04-03T00:10:33.837Z,5.37
2024-04-03T00:11:31.891Z,5.42
2024-04-03T00:12:31.972Z,5.32
2024-04-03T00:13:32.063Z,5.42
2024-04-03T00:14:32.123Z,5.37
2024-04-03T00:15:32.218Z,5.32
2024-04-03T00:16:32.287Z,5.37
2024-04-03T00:17:32.412Z,5.37
2024-04-03T00:18:32.461Z,5.32
2024-04-03T00:19:32.552Z,5.32
2024-04-03T00:20:32.654Z,5.37
2024-04-03T00:21:32.716Z,5.32
2024-04-03T00:22:32.816Z,5.48
2024-04-03T00:23:32.884Z,5.37
2024-04-03T00:24:32.973Z,5.42
2024-04-03T00:25:33.071Z,5.37
2024-04-03T00:26:33.129Z,5.37
2024-04-03T00:27:33.196Z,5.37
2024-04-03T00:28:33.297Z,5.37
2024-04-03T00:29:33.361Z,5.32
2024-04-03T00:30:33.454Z,5.37
2024-04-03T00:31:33.547Z,5.37
2024-04-03T00:32:33.641Z,5.32
2024-04-03T00:33:33.709Z,5.42
2024-04-03T00:34:33.792Z,5.37
2024-04-03T00:35:33.888Z,5.37
2024-04-03T00:36:33.971Z,5.37
2024-04-03T00:37:34.045Z,5.37
2024-04-03T00:38:34.134Z,5.37
2024-04-03T00:39:34.229Z,5.42
2024-04-03T00:40:34.287Z,5.37
2024-04-03T00:41:34.376Z,5.37
2024-04-03T00:42:34.467Z,5.37
2024-04-03T00:43:34.530Z,5.37
2024-04-03T00:44:34.613Z,5.37
2024-04-03T00:45:34.705Z,5.32
2024-04-03T00:46:34.819Z,5.37
2024-04-03T00:47:34.863Z,5.37
2024-04-03T00:48:34.927Z,5.37
2024-04-03T00:49:35.015Z,5.42
2024-04-03T00:50:35.108Z,5.32
2024-04-03T00:51:35.207Z,5.37
2024-04-03T00:52:35.276Z,5.32
2024-04-03T00:53:35.357Z,5.37
2024-04-03T00:54:35.400Z,5.37
2024-04-03T00:55:35.490Z,5.32
2024-04-03T00:56:35.548Z,5.37
2024-04-03T00:57:35.645Z,5.37
2024-04-03T00:58:35.718Z,5.37
2024-04-03T00:59:35.791Z,5.37
2024-04-03T01:00:35.916Z,5.37
2024-04-03T01:01:35.967Z,5.37
2024-04-03T01:02:36.050Z,5.32
2024-04-03T01:03:36.138Z,5.37
2024-04-03T01:04:36.227Z,5.37
2024-04-03T01:05:36.368Z,5.16
2024-04-03T01:06:36.446Z,5.37
2024-04-03T01:07:36.506Z,5.32
2024-04-03T01:08:36.587Z,5.37
2024-04-03T01:09:36.679Z,5.26
2024-04-03T01:10:36.775Z,5.26
2024-04-03T01:11:36.849Z,5.37
2024-04-03T01:12:36.933Z,5.26
2024-04-03T01:13:36.993Z,5.37
2024-04-03T01:14:37.053Z,5.26
2024-04-03T01:15:37.156Z,5.42
2024-04-03T01:16:37.236Z,5.53
2024-04-03T01:17:37.325Z,5.26
2024-04-03T01:18:37.374Z,5.42
2024-04-03T01:19:37.470Z,5.32
2024-04-03T01:20:37.630Z,5.48
2024-04-03T01:21:37.650Z,5.42
2024-04-03T01:22:37.702Z,5.53
2024-04-03T01:23:37.766Z,5.26
2024-04-03T01:24:37.828Z,5.26
2024-04-03T01:25:51.252Z,5.26
2024-04-03T01:26:38.013Z,5.26
2024-04-03T01:27:38.110Z,5.37
2024-04-03T01:28:38.195Z,5.53
2024-04-03T01:29:38.231Z,5.21
2024-04-03T01:30:38.331Z,5.26
2024-04-03T01:31:38.429Z,5.32
2024-04-03T01:32:38.518Z,5.26
2024-04-03T01:33:38.616Z,5.53
2024-04-03T01:34:38.678Z,5.21
2024-04-03T01:35:38.770Z,5.32
2024-04-03T01:36:38.830Z,5.21
2024-04-03T01:37:38.937Z,5.32
2024-04-03T01:38:38.990Z,5.37
2024-04-03T01:39:39.104Z,5.64
2024-04-03T01:40:39.166Z,5.42
2024-04-03T01:41:39.229Z,5.21
2024-04-03T01:42:39.327Z,5.26
2024-04-03T01:43:39.410Z,5.42
2024-04-03T01:44:39.489Z,5.48
2024-04-03T01:45:39.580Z,5.59
2024-04-03T01:46:39.669Z,5.26
2024-04-03T01:47:39.760Z,5.53
2024-04-03T01:48:39.868Z,5.48
2024-04-03T01:49:39.937Z,5.21
2024-04-03T01:50:40.035Z,5.26
2024-04-03T01:51:40.118Z,5.32
2024-04-03T01:52:40.190Z,5.26
2024-04-03T01:53:40.271Z,5.53
2024-04-03T01:54:40.370Z,5.26
2024-04-03T01:55:40.464Z,5.05
2024-04-03T01:56:40.559Z,5.42
2024-04-03T01:57:40.625Z,5.53
2024-04-03T01:58:40.688Z,5.21
2024-04-03T01:59:40.786Z,5.69
2024-04-03T02:00:40.857Z,5.26
2024-04-03T02:01:40.943Z,5.26
2024-04-03T02:02:41.027Z,5.26
2024-04-03T02:03:41.101Z,5.26
2024-04-03T02:04:41.188Z,5.21
2024-04-03T02:05:41.278Z,5.21
2024-04-03T02:06:41.382Z,5.48
2024-04-03T02:07:41.442Z,5.21
2024-04-03T02:08:41.532Z,5.53
2024-04-03T02:09:41.677Z,5.26
2024-04-03T02:10:41.733Z,5.42
2024-04-03T02:11:41.818Z,5.21
2024-04-03T02:12:41.887Z,5.53
2024-04-03T02:13:41.955Z,5.26
2024-04-03T02:14:42.018Z,5.26
2024-04-03T02:15:42.098Z,5.32
2024-04-03T02:16:42.178Z,5.26
2024-04-03T02:17:42.261Z,5.26
2024-04-03T02:18:42.354Z,5.21
2024-04-03T02:19:42.438Z,5.53
2024-04-03T02:20:42.506Z,5.26
2024-04-03T02:21:42.591Z,5.21
2024-04-03T02:22:42.680Z,5.16
2024-04-03T02:23:44.405Z,5.32
2024-04-03T02:24:42.878Z,5.48
2024-04-03T02:25:43.011Z,5.48
2024-04-03T02:26:43.054Z,5.48
2024-04-03T02:27:43.140Z,5.53
2024-04-03T02:28:43.228Z,5.48
2024-04-03T02:29:43.310Z,5.26
2024-04-03T02:30:43.403Z,5.21
2024-04-03T02:31:43.544Z,5.53
2024-04-03T02:32:43.558Z,5.42
2024-04-03T02:33:43.619Z,5.53
2024-04-03T02:34:43.686Z,5.32
2024-04-03T02:35:43.785Z,5.48
2024-04-03T02:36:43.874Z,5.48
2024-04-03T02:37:43.938Z,5.59
2024-04-03T02:38:44.008Z,5.48
2024-04-03T02:39:44.169Z,5.32
2024-04-03T02:40:44.175Z,5.26
2024-04-03T02:41:44.235Z,5.32
2024-04-03T02:42:44.300Z,5.53
2024-04-03T02:43:44.393Z,5.53
2024-04-03T02:44:44.454Z,5.37
2024-04-03T02:45:44.529Z,5.32
2024-04-03T02:46:44.647Z,5.21
2024-04-03T02:47:44.744Z,5.21
2024-04-03T02:48:44.767Z,5.48
2024-04-03T02:49:44.851Z,5.21
2024-04-03T02:50:44.957Z,5.37
2024-04-03T02:51:45.043Z,5.53
2024-04-03T02:52:45.118Z,5.53
2024-04-03T02:53:45.185Z,5.53
2024-04-03T02:54:45.263Z,5.42
2024-04-03T02:55:45.336Z,5.53
2024-04-03T02:56:45.424Z,5.53
2024-04-03T02:57:45.486Z,5.53
2024-04-03T02:58:45.587Z,5.37
2024-04-03T02:59:45.647Z,5.21
2024-04-03T03:00:45.750Z,5.48
2024-04-03T03:01:45.842Z,5.16
2024-04-03T03:02:45.930Z,5.48
2024-04-03T03:03:45.994Z,5.21
2024-04-03T03:04:46.099Z,5.32
2024-04-03T03:05:46.202Z,5.53
2024-04-03T03:06:46.289Z,5.32
2024-04-03T03:07:46.337Z,5.42
2024-04-03T03:08:46.406Z,5.42
2024-04-03T03:09:46.500Z,5.21
2024-04-03T03:10:46.618Z,5.48
2024-04-03T03:11:46.690Z,5.32
2024-04-03T03:12:46.758Z,5.42
2024-04-03T03:13:46.846Z,5.42
2024-04-03T03:14:46.915Z,5.48
2024-04-03T03:15:46.991Z,5.64
2024-04-03T03:16:47.070Z,5.32
2024-04-03T03:17:47.134Z,5.26
2024-04-03T03:18:47.193Z,5.48
2024-04-03T03:19:47.253Z,5.42
2024-04-03T03:20:47.366Z,5.53
2024-04-03T03:21:47.431Z,5.48
2024-04-03T03:22:47.522Z,5.21
2024-04-03T03:23:47.629Z,5.26
2024-04-03T03:24:47.687Z,5.53
2024-04-03T03:25:47.752Z,5.26
2024-04-03T03:26:47.850Z,5.21
2024-04-03T03:27:47.935Z,5.32
2024-04-03T03:28:48.031Z,5.53
2024-04-03T03:29:48.116Z,5.21
2024-04-03T03:30:48.222Z,5.26
2024-04-03T03:31:48.298Z,5.26
2024-04-03T03:32:48.411Z,5.48
2024-04-03T03:33:48.483Z,5.48
2024-04-03T03:34:48.557Z,5.53
2024-04-03T03:35:48.642Z,5.48
2024-04-03T03:36:48.733Z,5.21
2024-04-03T03:37:48.824Z,5.48
2024-04-03T03:38:48.920Z,5.75
2024-04-03T03:39:48.988Z,5.59
2024-04-03T03:40:49.067Z,5.53
2024-04-03T03:41:49.149Z,5.21
2024-04-03T03:42:49.222Z,5.16
2024-04-03T03:43:49.286Z,5.69
2024-04-03T03:44:49.384Z,5.42
2024-04-03T03:45:49.453Z,5.48
2024-04-03T03:46:49.497Z,5.10
2024-04-03T03:47:49.567Z,5.32
2024-04-03T03:48:49.673Z,5.42
2024-04-03T03:49:49.771Z,5.69
2024-04-03T03:50:49.838Z,5.42
2024-04-03T03:51:49.914Z,5.21
2024-04-03T03:52:50.005Z,5.75
2024-04-03T03:53:50.067Z,5.64
2024-04-03T03:54:50.132Z,5.75
2024-04-03T03:55:50.200Z,5.75
2024-04-03T03:56:50.301Z,5.69
2024-04-03T03:57:50.363Z,5.64
2024-04-03T03:58:50.427Z,5.37
2024-04-03T03:59:50.494Z,5.59
2024-04-03T04:00:50.594Z,5.48
2024-04-03T04:01:50.670Z,5.59
2024-04-03T04:02:50.757Z,5.48
2024-04-03T04:03:50.844Z,5.21
2024-04-03T04:04:50.944Z,5.69
2024-04-03T04:05:51.034Z,5.69
2024-04-03T04:06:51.106Z,5.75
2024-04-03T04:07:51.186Z,5.69
2024-04-03T04:08:51.267Z,5.59
2024-04-03T04:09:51.334Z,5.53
2024-04-03T04:10:51.437Z,5.69
2024-04-03T04:11:51.510Z,5.75
2024-04-03T04:12:51.615Z,5.75
2024-04-03T04:13:51.674Z,5.75
2024-04-03T04:14:51.756Z,5.75
2024-04-03T04:15:51.844Z,5.75
2024-04-03T04:16:51.926Z,5.59
2024-04-03T04:17:52.008Z,5.48
2024-04-03T04:18:52.100Z,5.80
2024-04-03T04:19:52.163Z,5.69
2024-04-03T04:21:01.566Z,5.42
2024-04-03T04:21:52.327Z,5.59
2024-04-03T04:22:52.397Z,5.42
2024-04-03T04:23:52.460Z,5.53
2024-04-03T04:24:52.541Z,5.37
2024-04-03T04:25:52.614Z,5.42
2024-04-03T04:26:52.722Z,5.48
2024-04-03T04:27:52.787Z,5.75
2024-04-03T04:28:52.879Z,5.85
2024-04-03T04:29:52.965Z,5.48
2024-04-03T04:30:53.037Z,5.80
2024-04-03T04:31:53.137Z,5.48
2024-04-03T04:32:53.233Z,5.69
2024-04-03T04:33:53.296Z,5.42
2024-04-03T04:34:53.384Z,5.48
2024-04-03T04:35:53.475Z,5.37
2024-04-03T04:36:53.546Z,5.69
2024-04-03T04:37:53.624Z,5.69
2024-04-03T04:38:53.727Z,5.42
2024-04-03T04:39:53.789Z,5.69
2024-04-03T04:40:53.873Z,5.64
2024-04-03T04:41:53.953Z,5.64
2024-04-03T04:42:54.061Z,5.64
2024-04-03T04:43:54.137Z,5.42
2024-04-03T04:44:54.194Z,5.42
2024-04-03T04:45:54.260Z,5.37
2024-04-03T04:46:54.366Z,5.91
2024-04-03T04:47:54.426Z,5.64
2024-04-03T04:48:54.509Z,5.48
2024-04-03T04:49:54.599Z,5.42
2024-04-03T04:50:54.690Z,5.69
2024-04-03T04:51:54.762Z,5.64
2024-04-03T04:52:54.856Z,5.69
2024-04-03T04:53:54.914Z,5.69
2024-04-03T04:54:55.023Z,5.69
2024-04-03T04:55:55.127Z,5.42
2024-04-03T04:56:55.208Z,5.53
2024-04-03T04:57:55.250Z,5.69
2024-04-03T04:58:55.353Z,5.48
2024-04-03T04:59:55.400Z,5.75
2024-04-03T05:00:55.499Z,5.75
2024-04-03T05:01:55.576Z,5.96
2024-04-03T05:02:55.624Z,5.69
2024-04-03T05:03:55.730Z,5.59
2024-04-03T05:04:55.814Z,5.85
2024-04-03T05:05:55.872Z,6.34
2024-04-03T05:06:55.962Z,5.37
2024-04-03T05:07:56.055Z,5.85
2024-04-03T05:08:56.185Z,5.75
2024-04-03T05:09:56.255Z,5.91
2024-04-03T05:10:56.311Z,5.64
2024-04-03T05:11:56.431Z,5.64
2024-04-03T05:12:56.435Z,5.69
2024-04-03T05:13:56.538Z,5.59
2024-04-03T05:14:56.615Z,5.91
2024-04-03T05:15:56.681Z,5.85
2024-04-03T05:16:56.781Z,5.64
2024-04-03T05:17:56.821Z,5.91
2024-04-03T05:18:56.891Z,5.91
2024-04-03T05:19:56.986Z,5.53
2024-04-03T05:20:57.082Z,5.75
2024-04-03T05:21:57.179Z,5.64
2024-04-03T05:22:57.251Z,5.64
2024-04-03T05:23:57.334Z,5.59
2024-04-03T05:24:57.436Z,5.91
2024-04-03T05:25:57.524Z,5.80
2024-04-03T05:26:57.575Z,5.59
2024-04-03T05:27:57.705Z,5.80
2024-04-03T05:28:57.766Z,5.85
2024-04-03T05:29:57.842Z,5.42
2024-04-03T05:30:57.955Z,5.91
2024-04-03T05:31:58.035Z,6.07
2024-04-03T05:32:58.118Z,5.69
2024-04-03T05:33:58.174Z,5.64
2024-04-03T05:34:58.291Z,5.75
2024-04-03T05:35:58.355Z,5.42
2024-04-03T05:36:58.431Z,5.69
2024-04-03T05:37:58.511Z,5.64
2024-04-03T05:38:58.608Z,5.48
2024-04-03T05:39:58.707Z,5.75
2024-04-03T05:41:06.313Z,5.37
2024-04-03T05:41:58.867Z,5.37
2024-04-03T05:42:58.967Z,5.64
2024-04-03T05:43:59.023Z,5.42
2024-04-03T05:44:59.103Z,5.42
2024-04-03T05:45:59.200Z,5.69
2024-04-03T05:46:59.297Z,5.37
2024-04-03T05:47:59.371Z,5.37
2024-04-03T05:48:59.503Z,5.64
2024-04-03T05:49:59.504Z,5.37
2024-04-03T05:50:59.586Z,5.42
2024-04-03T05:51:59.693Z,5.48
2024-04-03T05:52:59.754Z,5.53
2024-04-03T05:53:59.874Z,5.64
2024-04-03T05:54:59.909Z,5.42
2024-04-03T05:55:59.982Z,5.42
2024-04-03T05:57:00.065Z,5.48
2024-04-03T05:58:00.203Z,5.42
2024-04-03T05:59:00.217Z,5.42
2024-04-03T06:00:00.352Z,5.69
2024-04-03T06:01:00.399Z,5.85
2024-04-03T06:02:00.536Z,5.64
2024-04-03T06:03:00.553Z,5.80
2024-04-03T06:04:00.615Z,5.64
2024-04-03T06:05:00.745Z,5.69
2024-04-03T06:06:00.796Z,5.85
2024-04-03T06:07:00.871Z,5.91
2024-04-03T06:08:00.950Z,5.85
2024-04-03T06:09:01.097Z,5.85
2024-04-03T06:10:01.121Z,5.59
2024-04-03T06:11:01.211Z,5.64
2024-04-03T06:12:01.308Z,5.80
2024-04-03T06:13:01.384Z,5.64
2024-04-03T06:14:01.521Z,5.69
2024-04-03T06:15:01.578Z,5.91
2024-04-03T06:16:01.662Z,5.64
2024-04-03T06:17:01.745Z,5.91
2024-04-03T06:18:01.842Z,5.80
2024-04-03T06:19:01.895Z,5.91
2024-04-03T06:20:02.007Z,5.85
2024-04-03T06:21:02.068Z,5.85
2024-04-03T06:22:02.172Z,5.91
2024-04-03T06:23:02.251Z,5.69
2024-04-03T06:24:02.349Z,5.96
2024-04-03T06:25:02.413Z,5.91
2024-04-03T06:26:02.507Z,5.59
2024-04-03T06:27:02.602Z,5.69
2024-04-03T06:28:02.700Z,5.59
2024-04-03T06:29:02.786Z,5.85
2024-04-03T06:30:02.894Z,5.85
2024-04-03T06:31:02.943Z,5.91
2024-04-03T06:32:03.030Z,5.59
2024-04-03T06:33:03.106Z,6.07
2024-04-03T06:34:03.213Z,5.53
2024-04-03T06:35:03.307Z,5.64
2024-04-03T06:36:03.372Z,6.02
2024-04-03T06:37:03.440Z,5.80
2024-04-03T06:38:03.527Z,5.80
2024-04-03T06:39:03.588Z,6.07
2024-04-03T06:40:03.662Z,5.75
2024-04-03T06:41:03.799Z,5.80
2024-04-03T06:42:03.837Z,6.02
2024-04-03T06:43:03.973Z,5.80
2024-04-03T06:44:03.988Z,6.23
2024-04-03T06:45:04.087Z,6.28
2024-04-03T06:46:04.362Z,6.02
2024-04-03T06:47:04.274Z,6.07
2024-04-03T06:48:04.507Z,6.28
2024-04-03T06:49:04.398Z,6.02
2024-04-03T06:50:04.513Z,6.28
2024-04-03T06:51:04.573Z,6.07
2024-04-03T06:52:04.686Z,6.02
2024-04-03T06:53:04.735Z,6.28
2024-04-03T06:54:04.808Z,6.23
2024-04-03T06:55:04.920Z,6.12
2024-04-03T06:56:04.981Z,6.02
2024-04-03T06:57:05.079Z,6.28
2024-04-03T06:58:07.258Z,6.02
2024-04-03T06:59:05.257Z,6.23
2024-04-03T07:00:05.291Z,6.02
2024-04-03T07:01:05.354Z,6.18
2024-04-03T07:02:05.423Z,6.45
2024-04-03T07:03:05.537Z,6.18
2024-04-03T07:04:05.573Z,6.34
2024-04-03T07:05:05.645Z,6.39
2024-04-03T07:06:05.726Z,6.34
2024-04-03T07:07:05.857Z,6.34
2024-04-03T07:08:05.892Z,6.50
2024-04-03T07:09:05.944Z,6.50
2024-04-03T07:10:06.071Z,6.45
2024-04-03T07:11:06.135Z,6.18
2024-04-03T07:12:06.223Z,6.50
2024-04-03T07:13:06.285Z,6.23
2024-04-03T07:14:06.376Z,6.45
2024-04-03T07:15:06.453Z,6.23
2024-04-03T07:16:06.542Z,6.45
2024-04-03T07:17:06.614Z,6.66
2024-04-03T07:18:07.193Z,6.50
2024-04-03T07:19:06.752Z,6.28
2024-04-03T07:20:06.824Z,6.34
2024-04-03T07:21:06.937Z,6.50
2024-04-03T07:22:07.012Z,6.23
2024-04-03T07:23:07.078Z,6.23
2024-04-03T07:24:07.157Z,6.50
2024-04-03T07:25:07.240Z,6.28
2024-04-03T07:26:07.364Z,6.23
2024-04-03T07:27:07.423Z,6.61
2024-04-03T07:28:07.504Z,6.71
2024-04-03T07:29:07.581Z,6.28
2024-04-03T07:30:07.705Z,6.55
2024-04-03T07:31:07.740Z,6.50
2024-04-03T07:32:07.907Z,6.66
2024-04-03T07:33:07.900Z,6.45
2024-04-03T07:34:08.050Z,6.28
2024-04-03T07:35:08.119Z,6.55
2024-04-03T07:36:08.147Z,6.39
2024-04-03T07:37:08.252Z,6.23
2024-04-03T07:38:08.331Z,6.55
2024-04-03T07:39:10.169Z,6.61
2024-04-03T07:40:08.516Z,6.66
2024-04-03T07:41:08.574Z,6.39
2024-04-03T07:42:08.765Z,6.39
2024-04-03T07:43:08.774Z,6.71
2024-04-03T07:44:08.851Z,6.23
2024-04-03T07:45:08.920Z,6.39
2024-04-03T07:46:08.981Z,6.66
2024-04-03T07:47:09.095Z,6.77
2024-04-03T07:48:09.243Z,6.66
2024-04-03T07:49:09.262Z,6.66
2024-04-03T07:50:09.296Z,6.82
2024-04-03T07:51:09.424Z,6.66
2024-04-03T07:52:09.488Z,6.98
2024-04-03T07:53:09.508Z,6.66
2024-04-03T07:54:09.603Z,6.61
2024-04-03T07:55:09.668Z,6.66
2024-04-03T07:56:09.747Z,6.66
2024-04-03T07:57:09.829Z,6.61
2024-04-03T07:58:09.906Z,6.34
2024-04-03T07:59:09.985Z,6.71
2024-04-03T08:00:10.067Z,6.45
2024-04-03T08:01:10.150Z,6.66
2024-04-03T08:02:10.335Z,6.55
2024-04-03T08:03:17.799Z,6.66
2024-04-03T08:04:10.402Z,6.39
2024-04-03T08:05:10.474Z,6.61
2024-04-03T08:06:10.585Z,6.61
2024-04-03T08:07:10.654Z,6.39
2024-04-03T08:08:13.098Z,6.45
2024-04-03T08:09:10.792Z,6.39
2024-04-03T08:10:10.854Z,6.66
2024-04-03T08:11:10.939Z,6.82
2024-04-03T08:12:11.080Z,6.45
2024-04-03T08:13:11.545Z,6.61
2024-04-03T08:14:14.494Z,6.55
2024-04-03T08:15:11.244Z,6.50
2024-04-03T08:16:11.288Z,6.39
2024-04-03T08:17:11.443Z,6.71
2024-04-03T08:18:11.453Z,6.34
2024-04-03T08:19:11.530Z,6.71
2024-04-03T08:20:11.890Z,6.61
2024-04-03T08:21:11.850Z,6.61
2024-04-03T08:22:11.959Z,6.93
2024-04-03T08:23:11.803Z,6.82
2024-04-03T08:24:11.946Z,6.61
2024-04-03T08:25:11.991Z,6.88
2024-04-03T08:26:12.080Z,6.88
2024-04-03T08:27:12.152Z,6.82
2024-04-03T08:28:12.183Z,6.77
2024-04-03T08:29:12.270Z,6.66
2024-04-03T08:30:12.325Z,6.61
2024-04-03T08:31:12.374Z,6.82
2024-04-03T08:32:12.520Z,6.82
2024-04-03T08:33:12.912Z,6.66
2024-04-03T08:34:12.814Z,6.61
2024-04-03T08:35:12.719Z,6.61
2024-04-03T08:36:12.794Z,6.98
2024-04-03T08:37:12.895Z,6.61
2024-04-03T08:38:12.983Z,6.77
2024-04-03T08:39:13.019Z,6.71
2024-04-03T08:40:13.155Z,6.61
2024-04-03T08:41:13.170Z,6.61
2024-04-03T08:42:13.216Z,7.04
2024-04-03T08:43:13.301Z,6.88
2024-04-03T08:44:13.385Z,6.55
2024-04-03T08:45:13.623Z,7.04
2024-04-03T08:46:13.587Z,6.71
2024-04-03T08:47:13.679Z,6.88
2024-04-03T08:48:13.729Z,6.61
2024-04-03T08:49:14.816Z,7.04
2024-04-03T08:50:13.871Z,6.82
2024-04-03T08:51:13.953Z,6.93
2024-04-03T08:52:14.046Z,6.82
2024-04-03T08:53:14.123Z,6.77
2024-04-03T08:54:14.218Z,6.88
2024-04-03T08:55:14.333Z,6.71
2024-04-03T08:56:14.355Z,6.55
2024-04-03T08:57:14.408Z,6.88
2024-04-03T08:58:14.504Z,6.93
2024-04-03T08:59:14.644Z,6.61
2024-04-03T09:00:14.653Z,7.09
2024-04-03T09:01:14.708Z,6.93
2024-04-03T09:02:14.809Z,6.88
2024-04-03T09:03:14.868Z,6.77
2024-04-03T09:04:14.986Z,6.88
2024-04-03T09:05:15.012Z,6.50
2024-04-03T09:06:15.135Z,6.88
2024-04-03T09:07:15.208Z,6.66
2024-04-03T09:08:15.285Z,6.66
2024-04-03T09:09:15.370Z,6.66
2024-04-03T09:10:16.182Z,6.82
2024-04-03T09:11:15.487Z,6.88
2024-04-03T09:12:15.620Z,6.88
2024-04-03T09:13:15.712Z,6.77
2024-04-03T09:14:15.759Z,6.66
2024-04-03T09:15:15.809Z,6.88
2024-04-03T09:16:15.956Z,6.66
2024-04-03T09:17:15.953Z,6.71
2024-04-03T09:18:16.103Z,6.98
2024-04-03T09:19:16.118Z,7.04
2024-04-03T09:20:16.187Z,6.61
2024-04-03T09:21:16.274Z,7.04
2024-04-03T09:22:16.378Z,7.09
2024-04-03T09:23:16.440Z,6.66
2024-04-03T09:24:16.554Z,6.55
2024-04-03T09:25:16.690Z,6.77
2024-04-03T09:26:16.962Z,6.88
2024-04-03T09:27:16.811Z,7.04
2024-04-03T09:28:16.830Z,6.61
2024-04-03T09:29:16.902Z,6.55
2024-04-03T09:30:16.976Z,6.77
2024-04-03T09:31:17.148Z,6.55
2024-04-03T09:32:17.270Z,6.88
2024-04-03T09:33:17.355Z,6.82
2024-04-03T09:34:17.277Z,6.61
2024-04-03T09:35:17.344Z,6.77
2024-04-03T09:36:17.598Z,6.88
2024-04-03T09:37:17.658Z,7.04
2024-04-03T09:38:17.586Z,6.82
2024-04-03T09:39:17.683Z,6.82
2024-04-03T09:40:17.890Z,6.77
2024-04-03T09:41:17.807Z,6.50
2024-04-03T09:42:17.979Z,6.77
2024-04-03T09:43:18.054Z,6.61
2024-04-03T09:44:18.079Z,6.66
2024-04-03T09:45:18.208Z,6.61
2024-04-03T09:46:18.264Z,6.66
2024-04-03T09:47:18.330Z,6.61
2024-04-03T09:48:18.450Z,6.77
2024-04-03T09:49:18.454Z,6.61
2024-04-03T09:50:18.644Z,6.77
2024-04-03T09:51:18.780Z,6.82
2024-04-03T09:52:18.702Z,6.88
2024-04-03T09:53:18.794Z,6.82
2024-04-03T09:54:18.936Z,7.04
2024-04-03T09:55:18.950Z,7.04
2024-04-03T09:56:19.075Z,6.77
2024-04-03T09:57:19.175Z,6.88
2024-04-03T09:58:19.280Z,6.98
2024-04-03T09:59:19.307Z,6.98
2024-04-03T10:00:20.305Z,6.82
2024-04-03T10:01:19.481Z,6.88
2024-04-03T10:02:19.525Z,6.77
2024-04-03T10:03:19.673Z,6.93
2024-04-03T10:04:19.690Z,6.98
2024-04-03T10:05:19.840Z,6.93
2024-04-03T10:06:19.846Z,6.66
2024-04-03T10:07:20.067Z,6.98
2024-04-03T10:08:20.041Z,6.88
2024-04-03T10:09:20.165Z,6.98
2024-04-03T10:10:20.166Z,6.77
2024-04-03T10:11:20.308Z,6.82
2024-04-03T10:12:20.344Z,6.93
2024-04-03T10:13:20.401Z,6.77
2024-04-03T10:14:20.466Z,6.82
2024-04-03T10:15:20.618Z,6.93
2024-04-03T10:16:20.665Z,6.82
2024-04-03T10:17:20.798Z,6.77
2024-04-03T10:18:20.821Z,7.04
2024-04-03T10:19:20.976Z,6.82
2024-04-03T10:20:21.020Z,7.04
2024-04-03T10:21:21.057Z,7.04
2024-04-03T10:22:21.481Z,7.04
2024-04-03T10:23:21.190Z,6.88
2024-04-03T10:24:21.326Z,6.66
2024-04-03T10:25:21.412Z,7.04
2024-04-03T10:26:21.729Z,7.09
2024-04-03T10:27:22.113Z,6.98
2024-04-03T10:28:21.640Z,6.98
2024-04-03T10:29:21.719Z,6.55
2024-04-03T10:30:21.845Z,6.71
2024-04-03T10:31:21.959Z,6.77
2024-04-03T10:32:22.042Z,6.82
2024-04-03T10:33:22.831Z,6.93
2024-04-03T10:34:22.260Z,7.04
2024-04-03T10:35:22.227Z,6.93
2024-04-03T10:36:22.341Z,6.88
2024-04-03T10:37:22.373Z,6.77
2024-04-03T10:38:22.487Z,6.77
2024-04-03T10:39:22.606Z,7.09
2024-04-03T10:40:22.657Z,6.82
2024-04-03T10:41:22.736Z,6.71
2024-04-03T10:42:22.847Z,6.77
2024-04-03T10:43:23.790Z,6.93
2024-04-03T10:44:22.944Z,7.09
2024-04-03T10:45:23.070Z,6.98
2024-04-03T10:46:23.067Z,6.77
2024-04-03T10:47:23.348Z,7.04
2024-04-03T10:48:23.351Z,6.82
2024-04-03T10:49:23.335Z,7.14
2024-04-03T10:50:23.487Z,7.09
2024-04-03T10:51:23.511Z,7.09
2024-04-03T10:52:23.620Z,7.09
2024-04-03T10:53:23.677Z,7.04
2024-04-03T10:54:23.802Z,6.88
2024-04-03T10:55:23.839Z,6.82
2024-04-03T10:56:23.914Z,6.88
2024-04-03T10:57:24.095Z,6.82
2024-04-03T10:58:24.176Z,7.09
2024-04-03T10:59:24.150Z,7.09
2024-04-03T11:00:24.366Z,7.09
2024-04-03T11:01:24.538Z,6.77
2024-04-03T11:02:24.419Z,7.04
2024-04-03T11:03:24.536Z,6.77
2024-04-03T11:04:24.555Z,6.88
2024-04-03T11:05:24.664Z,6.88
2024-04-03T11:06:24.789Z,7.04
2024-04-03T11:07:24.804Z,6.88
2024-04-03T11:08:24.852Z,6.98
2024-04-03T11:09:24.977Z,6.98
2024-04-03T11:10:25.101Z,7.04
2024-04-03T11:11:25.165Z,6.77
2024-04-03T11:12:25.214Z,7.09
2024-04-03T11:13:25.286Z,7.09
2024-04-03T11:14:25.414Z,7.09
2024-04-03T11:15:25.539Z,7.09
2024-04-03T11:16:25.454Z,6.88
2024-04-03T11:17:25.608Z,6.77
2024-04-03T11:18:25.668Z,6.82
2024-04-03T11:19:25.836Z,7.04
2024-04-03T11:20:25.815Z,7.09
2024-04-03T11:21:25.869Z,7.14
2024-04-03T11:22:26.023Z,7.14
2024-04-03T11:23:26.055Z,7.09
2024-04-03T11:24:26.115Z,6.88
2024-04-03T11:25:26.235Z,6.82
2024-04-03T11:26:26.430Z,6.88
2024-04-03T11:27:26.460Z,7.04
2024-04-03T11:28:26.461Z,6.77
2024-04-03T11:29:26.543Z,7.09
2024-04-03T11:30:26.625Z,7.09
2024-04-03T11:31:26.663Z,6.82
2024-04-03T11:32:26.756Z,7.09
2024-04-03T11:33:26.844Z,6.77
2024-04-03T11:34:27.274Z,6.93
2024-04-03T11:35:27.093Z,6.77
2024-04-03T11:36:27.073Z,6.71
2024-04-03T11:37:27.164Z,6.77
2024-04-03T11:38:27.202Z,6.93
2024-04-03T11:39:27.312Z,7.04
2024-04-03T11:40:27.356Z,6.71
2024-04-03T11:41:27.414Z,6.93
2024-04-03T11:42:27.575Z,7.09
2024-04-03T11:43:27.598Z,7.14
2024-04-03T11:44:27.767Z,7.09
2024-04-03T11:45:27.823Z,6.77
2024-04-03T11:46:27.917Z,7.09
2024-04-03T11:47:28.010Z,6.77
2024-04-03T11:48:28.100Z,7.09
2024-04-03T11:49:28.415Z,6.77
2024-04-03T11:50:28.210Z,7.09
2024-04-03T11:51:28.798Z,7.09
2024-04-03T11:52:28.371Z,7.09
2024-04-03T11:53:28.515Z,6.88
2024-04-03T11:54:28.638Z,7.04
2024-04-03T11:55:28.608Z,6.88
2024-04-03T11:56:28.678Z,7.09
2024-04-03T11:57:28.810Z,6.77
2024-04-03T11:58:28.852Z,7.09
2024-04-03T11:59:28.957Z,6.93
2024-04-03T12:00:29.059Z,7.14
2024-04-03T12:01:29.127Z,7.04
2024-04-03T12:02:29.688Z,7.04
2024-04-03T12:03:29.311Z,6.77
2024-04-03T12:04:29.361Z,7.04
2024-04-03T12:05:29.446Z,7.04
2024-04-03T12:06:29.580Z,7.04
2024-04-03T12:07:29.551Z,6.71
2024-04-03T12:08:29.637Z,6.77
2024-04-03T12:09:29.716Z,6.77
2024-04-03T12:10:29.829Z,6.82
2024-04-03T12:11:29.877Z,6.98
2024-04-03T12:12:30.032Z,6.93
2024-04-03T12:13:30.048Z,6.98
2024-04-03T12:14:30.089Z,6.55
2024-04-03T12:15:31.405Z,7.04
2024-04-03T12:16:30.237Z,7.09
2024-04-03T12:17:30.615Z,7.04
2024-04-03T12:18:30.485Z,6.77
2024-04-03T12:19:30.491Z,6.77
2024-04-03T12:20:30.544Z,7.04
2024-04-03T12:21:30.721Z,6.82
2024-04-03T12:22:30.731Z,6.55
2024-04-03T12:23:31.251Z,7.04
2024-04-03T12:24:30.966Z,6.93
2024-04-03T12:25:30.999Z,6.82
2024-04-03T12:26:31.078Z,6.88
2024-04-03T12:27:31.185Z,7.09
2024-04-03T12:28:31.185Z,6.93
2024-04-03T12:29:31.235Z,7.14
2024-04-03T12:30:31.549Z,6.55
2024-04-03T12:31:32.422Z,7.04
2024-04-03T12:32:31.441Z,7.04
2024-04-03T12:33:31.549Z,7.04
2024-04-03T12:34:31.587Z,6.71
2024-04-03T12:35:31.694Z,7.09
2024-04-03T12:36:53.286Z,6.98
2024-04-03T12:37:47.058Z,7.09
2024-04-03T12:39:32.122Z,7.04
2024-04-03T12:40:32.060Z,7.30
2024-04-03T12:41:32.297Z,6.71
2024-04-03T12:42:33.362Z,6.71
2024-04-03T12:43:32.305Z,6.98
2024-04-03T12:44:32.553Z,6.93
2024-04-03T12:45:32.583Z,6.77
2024-04-03T12:46:32.565Z,6.88
2024-04-03T12:47:32.602Z,7.04
2024-04-03T12:48:32.741Z,6.77
2024-04-03T12:49:32.792Z,6.77
2024-04-03T12:50:32.859Z,6.98
2024-04-03T12:51:32.992Z,7.09
2024-04-03T12:52:33.039Z,7.09
2024-04-03T12:53:33.154Z,6.77
2024-04-03T12:54:33.253Z,7.04
2024-04-03T12:55:33.259Z,6.77
2024-04-03T12:56:33.351Z,7.25
2024-04-03T12:57:33.565Z,7.14
2024-04-03T12:58:33.459Z,7.09
2024-04-03T12:59:33.602Z,7.04
2024-04-03T13:00:33.722Z,6.88
2024-04-03T13:01:33.755Z,7.04
2024-04-03T13:02:34.450Z,6.98
2024-04-03T13:03:34.003Z,6.77
2024-04-03T13:04:34.110Z,7.04
2024-04-03T13:05:34.086Z,6.98
2024-04-03T13:06:34.203Z,6.71
2024-04-03T13:07:34.247Z,7.04
2024-04-03T13:08:34.340Z,7.09
2024-04-03T13:09:34.500Z,7.09
2024-04-03T13:10:34.435Z,6.71
2024-04-03T13:11:34.618Z,7.14
2024-04-03T13:12:34.659Z,7.30
2024-04-03T13:13:34.720Z,6.98
2024-04-03T13:14:34.766Z,6.88
2024-04-03T13:15:36.360Z,6.98
2024-04-03T13:16:34.921Z,7.09
2024-04-03T13:17:35.031Z,7.25
2024-04-03T13:18:35.142Z,6.77
2024-04-03T13:19:35.207Z,7.04
2024-04-03T13:20:35.323Z,7.09